Time;durP1;ratioP1;P1;durP2;ratioP2;P2;SDS_P1;SDS_P2;PMS_P1;PMS_P2;Temp;Humidity;BMP_temperature;BMP_pressure;BME280_temperature;BME280_humidity;BME280_pressure;Samples;Min_cycle;Max_cycle;Signal;HPM_P1;HPM_P2
2024/02/19 00:01:27;;;;;;;16.48;2.60;;;;;;;7.70;100.00;69244.91;5071074;28;20064;-51
2024/02/19 00:03:55;;;;;;;17.98;3.10;;;;;;;7.67;100.00;69241.44;5070634;28;20045;-48
2024/02/19 00:06:23;;;;;;;18.48;3.33;;;;;;;7.69;100.00;69241.16;5070143;28;20041;-52
2024/02/19 00:08:51;;;;;;;17.13;3.20;;;;;;;7.66;100.00;69240.25;5072414;28;20132;-51
2024/02/19 00:11:21;;;;;;;19.25;3.45;;;;;;;7.61;100.00;69238.19;5068892;28;20041;-50
2024/02/19 00:13:49;;;;;;;14.85;3.08;;;;;;;7.66;100.00;69238.25;5070215;28;20745;-52
2024/02/19 00:16:19;;;;;;;18.73;2.85;;;;;;;7.68;100.00;69245.78;5072883;28;20157;-50
2024/02/19 00:18:49;;;;;;;17.27;3.28;;;;;;;7.68;100.00;69242.59;5070584;28;20044;-52
2024/02/19 00:21:17;;;;;;;22.98;3.80;;;;;;;7.66;100.00;69240.25;5071588;28;20105;-50
2024/02/19 00:23:46;;;;;;;25.30;3.20;;;;;;;7.67;100.00;69238.84;5072123;28;20055;-48
2024/02/19 00:26:14;;;;;;;27.70;3.97;;;;;;;7.65;100.00;69236.50;5068475;28;20143;-52
2024/02/19 00:28:43;;;;;;;21.80;3.75;;;;;;;7.58;100.00;69228.91;5070148;28;20040;-51
2024/02/19 00:31:13;;;;;;;21.27;3.75;;;;;;;7.64;100.00;69241.13;5072822;28;20075;-52
2024/02/19 00:33:41;;;;;;;17.92;3.35;;;;;;;7.61;100.00;69235.03;5070630;28;20044;-51
2024/02/19 00:36:10;;;;;;;21.88;3.75;;;;;;;7.60;100.00;69231.25;5072066;28;20048;-51
2024/02/19 00:38:38;;;;;;;37.90;5.20;;;;;;;7.63;100.00;69236.78;5070706;28;20037;-52
2024/02/19 00:41:06;;;;;;;24.52;4.70;;;;;;;7.59;100.00;69235.88;5068476;28;20057;-51
2024/02/19 00:43:34;;;;;;;19.02;3.78;;;;;;;7.56;100.00;69232.38;5071076;28;20084;-53
2024/02/19 00:46:04;;;;;;;26.42;3.67;;;;;;;7.53;100.00;69226.28;5070776;28;20079;-61
2024/02/19 00:48:32;;;;;;;28.25;4.07;;;;;;;7.57;100.00;69228.34;5070432;28;20048;-51
2024/02/19 00:51:04;;;;;;;22.23;4.00;;;;;;;7.52;100.00;69219.94;5069695;28;20040;-50
2024/02/19 00:53:32;;;;;;;26.40;4.47;;;;;;;7.51;100.00;69223.38;5069991;28;20380;-52
2024/02/19 00:56:00;;;;;;;22.92;3.70;;;;;;;7.49;100.00;69219.03;5068745;28;20041;-51
2024/02/19 00:58:28;;;;;;;21.65;3.17;;;;;;;7.55;100.00;69226.03;5069605;28;20053;-52
2024/02/19 01:00:58;;;;;;;22.85;3.95;;;;;;;7.51;100.00;69223.38;5069950;28;20052;-51
2024/02/19 01:03:28;;;;;;;19.65;3.55;;;;;;;7.51;100.00;69218.19;5073328;28;20056;-51
2024/02/19 01:05:56;;;;;;;21.98;3.83;;;;;;;7.52;100.00;69224.53;5069970;28;20057;-52
2024/02/19 01:08:24;;;;;;;21.70;3.47;;;;;;;7.50;100.00;69225.41;5069307;28;20412;-51
2024/02/19 01:10:52;;;;;;;24.55;4.40;;;;;;;7.54;100.00;69227.47;5068651;28;20052;-52
2024/02/19 01:13:21;;;;;;;28.05;3.92;;;;;;;7.53;100.00;69225.72;5069361;28;20053;-50
2024/02/19 01:15:49;;;;;;;21.13;3.33;;;;;;;7.50;100.00;69227.41;5071302;28;20123;-48
2024/02/19 01:18:17;;;;;;;22.13;3.42;;;;;;;7.45;100.00;69222.75;5072675;28;20074;-49
2024/02/19 01:20:47;;;;;;;19.38;3.28;;;;;;;7.46;100.00;69220.75;5068756;28;20082;-49
2024/02/19 01:23:16;;;;;;;21.38;3.28;;;;;;;7.49;100.00;69229.41;5068095;28;20052;-51
2024/02/19 01:25:45;;;;;;;22.00;3.38;;;;;;;7.50;100.00;69219.59;5067867;28;20036;-50
2024/02/19 01:28:13;;;;;;;17.23;3.17;;;;;;;7.49;100.00;69218.47;5067009;28;20052;-52
2024/02/19 01:30:41;;;;;;;25.65;3.42;;;;;;;7.49;100.00;69224.22;5069675;28;20044;-48
2024/02/19 01:33:09;;;;;;;30.15;3.45;;;;;;;7.47;100.00;69219.28;5069269;28;20044;-53
2024/02/19 01:35:38;;;;;;;26.60;4.70;;;;;;;7.44;100.00;69216.41;5068770;28;20044;-53
2024/02/19 01:38:07;;;;;;;16.92;3.58;;;;;;;7.47;100.00;69218.72;5069259;28;20101;-51
2024/02/19 01:40:35;;;;;;;20.08;3.42;;;;;;;7.50;100.00;69217.00;5070702;28;20071;-52
2024/02/19 01:43:05;;;;;;;18.60;3.95;;;;;;;7.52;100.00;69222.53;5070121;28;20219;-53
2024/02/19 01:45:34;;;;;;;13.90;2.55;;;;;;;7.50;100.00;69222.22;5069374;28;20055;-49
2024/02/19 01:48:03;;;;;;;24.17;3.40;;;;;;;7.47;100.00;69221.88;5069647;28;20048;-52
2024/02/19 01:50:32;;;;;;;20.02;3.70;;;;;;;7.45;100.00;69220.16;5068481;28;20059;-51
2024/02/19 01:53:03;;;;;;;17.52;3.75;;;;;;;7.47;100.00;69221.31;5069602;28;20048;-50
2024/02/19 01:55:37;;;;;;;21.23;3.50;;;;;;;7.46;100.00;69218.16;5068312;28;20082;-50
2024/02/19 01:58:08;;;;;;;25.42;3.45;;;;;;;7.46;100.00;69218.16;5068570;28;20040;-50
2024/02/19 02:00:36;;;;;;;21.52;3.88;;;;;;;7.45;100.00;69216.97;5069229;28;20050;-53
2024/02/19 02:03:05;;;;;;;18.52;4.20;;;;;;;7.47;100.00;69221.31;5069177;28;20044;-52
2024/02/19 02:05:35;;;;;;;23.30;4.57;;;;;;;7.46;100.00;69215.56;5068725;28;20408;-52
2024/02/19 02:08:06;;;;;;;20.85;3.42;;;;;;;7.47;100.00;69218.72;5069175;28;20037;-51
2024/02/19 02:10:38;;;;;;;21.42;3.47;;;;;;;7.48;100.00;69219.88;5068112;28;20051;-52
2024/02/19 02:13:08;;;;;;;20.25;2.88;;;;;;;7.52;100.00;69225.13;5071249;28;20492;-51
2024/02/19 02:15:36;;;;;;;26.08;4.10;;;;;;;7.47;100.00;69219.28;5068776;28;20492;-53
2024/02/19 02:18:05;;;;;;;20.60;3.92;;;;;;;7.48;100.00;69217.28;5068887;28;20119;-51
2024/02/19 02:20:33;;;;;;;22.10;3.72;;;;;;;7.46;100.00;69218.16;5068457;28;20055;-53
2024/02/19 02:23:03;;;;;;;19.05;3.72;;;;;;;7.44;100.00;69218.41;5071449;28;20049;-52
2024/02/19 02:25:33;;;;;;;24.23;3.30;;;;;;;7.43;100.00;69219.81;5068172;28;20454;-53
2024/02/19 02:28:02;;;;;;;22.67;4.00;;;;;;;7.42;100.00;69216.66;5069394;28;20094;-52
2024/02/19 02:30:31;;;;;;;24.65;4.40;;;;;;;7.41;100.00;69210.28;5072328;28;20049;-49
2024/02/19 02:32:59;;;;;;;22.55;3.47;;;;;;;7.40;100.00;69208.56;5072455;28;20098;-51
2024/02/19 02:35:28;;;;;;;16.58;3.58;;;;;;;7.34;100.00;69204.75;5069979;28;20073;-51
2024/02/19 02:37:56;;;;;;;26.83;4.72;;;;;;;7.33;100.00;69203.59;5072415;28;20127;-52
2024/02/19 02:40:25;;;;;;;26.10;3.67;;;;;;;7.33;100.00;69205.59;5071422;28;20499;-50
2024/02/19 02:42:53;;;;;;;25.17;3.58;;;;;;;7.33;100.00;69203.00;5073746;28;20110;-53
2024/02/19 02:45:23;;;;;;;22.25;2.88;;;;;;;7.31;100.00;69200.66;5075889;28;20064;-52
2024/02/19 02:47:51;;;;;;;25.63;3.72;;;;;;;7.32;100.00;69199.25;5073277;28;20048;-51
2024/02/19 02:50:19;;;;;;;21.98;3.03;;;;;;;7.27;100.00;69197.19;5071279;28;20045;-50
2024/02/19 02:52:47;;;;;;;17.40;3.15;;;;;;;7.25;100.00;69194.28;5075709;28;20052;-49
2024/02/19 02:55:15;;;;;;;18.75;3.30;;;;;;;7.25;100.00;69194.28;5073471;28;20127;-51
2024/02/19 02:57:46;;;;;;;19.52;3.25;;;;;;;7.28;100.00;69202.97;5070289;28;20041;-53
2024/02/19 03:00:15;;;;;;;22.02;3.65;;;;;;;7.23;100.00;69191.94;5073967;28;20147;-50
2024/02/19 03:02:45;;;;;;;19.88;3.63;;;;;;;7.23;100.00;69197.16;5074943;28;20045;-50
2024/02/19 03:05:13;;;;;;;17.33;3.38;;;;;;;7.23;100.00;69192.53;5074298;28;20123;-49
2024/02/19 03:07:41;;;;;;;21.10;3.67;;;;;;;7.21;100.00;69190.22;5072408;28;20037;-51
2024/02/19 03:10:11;;;;;;;23.40;4.72;;;;;;;7.20;100.00;69191.03;5070934;28;20051;-52
2024/02/19 03:12:42;;;;;;;19.02;3.50;;;;;;;7.20;100.00;69189.03;5071605;28;20518;-49
2024/02/19 03:15:10;;;;;;;22.42;3.45;;;;;;;7.15;100.00;69188.41;5073869;28;20381;-61
2024/02/19 03:17:38;;;;;;;19.73;3.40;;;;;;;7.15;100.00;69188.41;5074049;28;20102;-61
2024/02/19 03:20:13;;;;;;;17.75;3.28;;;;;;;7.16;100.00;69183.78;5074400;28;20586;-61
2024/02/19 03:22:42;;;;;;;19.48;4.03;;;;;;;7.18;100.00;69191.91;5074235;28;20496;-62
2024/02/19 03:25:12;;;;;;;26.58;3.72;;;;;;;7.20;100.00;69186.44;5074264;28;20044;-60
2024/02/19 03:27:41;;;;;;;20.90;3.35;;;;;;;7.18;100.00;69184.09;5073558;28;20051;-61
2024/02/19 03:30:10;;;;;;;19.17;3.33;;;;;;;7.19;100.00;69187.88;5072363;28;20045;-61
2024/02/19 03:32:38;;;;;;;17.45;3.42;;;;;;;7.18;100.00;69183.53;5074618;28;20068;-61
2024/02/19 03:35:09;;;;;;;22.27;3.53;;;;;;;7.16;100.00;69184.38;5074261;28;20089;-61
2024/02/19 03:37:37;;;;;;;25.65;3.50;;;;;;;7.14;100.00;69182.06;5073957;28;20059;-62
2024/02/19 03:40:08;;;;;;;18.88;3.72;;;;;;;7.17;100.00;69187.56;5073362;28;20059;-61
2024/02/19 03:42:37;;;;;;;20.52;3.55;;;;;;;7.18;100.00;69191.31;5073309;28;20538;-61
2024/02/19 03:45:06;;;;;;;27.42;4.70;;;;;;;7.15;100.00;69182.66;5073362;28;20048;-61
2024/02/19 03:47:34;;;;;;;15.75;3.63;;;;;;;7.16;100.00;69183.78;5072859;28;20566;-61
2024/02/19 03:50:04;;;;;;;22.45;3.38;;;;;;;7.16;100.00;69183.78;5071934;28;20098;-61
2024/02/19 03:52:33;;;;;;;26.02;4.15;;;;;;;7.19;100.00;69187.88;5071032;28;20152;-51
2024/02/19 03:55:01;;;;;;;26.23;4.05;;;;;;;7.18;100.00;69184.09;5070002;28;20496;-50
2024/02/19 03:57:30;;;;;;;23.35;3.58;;;;;;;7.23;100.00;69192.53;5069812;28;20045;-50
2024/02/19 03:59:58;;;;;;;32.88;4.78;;;;;;;7.26;100.00;69190.25;5071984;28;20041;-48
2024/02/19 04:02:27;;;;;;;28.40;4.55;;;;;;;7.21;100.00;69189.63;5073051;28;20496;-50
2024/02/19 04:04:55;;;;;;;26.02;4.82;;;;;;;7.18;100.00;69186.69;5074306;28;20080;-49
2024/02/19 04:07:24;;;;;;;20.55;4.40;;;;;;;7.24;100.00;69195.69;5070749;28;21048;-52
2024/02/19 04:09:54;;;;;;;22.45;4.05;;;;;;;7.23;100.00;69192.53;5070766;28;20063;-51
2024/02/19 04:12:24;;;;;;;23.55;4.55;;;;;;;7.23;100.00;69191.94;5072195;28;20052;-50
2024/02/19 04:14:53;;;;;;;28.63;4.68;;;;;;;7.27;100.00;69196.59;5070750;28;20075;-52
2024/02/19 04:17:21;;;;;;;21.25;4.55;;;;;;;7.26;100.00;69193.41;5072592;28;20033;-48
2024/02/19 04:19:49;;;;;;;22.52;5.20;;;;;;;7.25;100.00;69197.47;5073817;28;20102;-49
2024/02/19 04:22:17;;;;;;;20.25;4.13;;;;;;;7.23;100.00;69192.53;5073937;28;20438;-54
2024/02/19 04:24:45;;;;;;;24.95;5.75;;;;;;;7.26;100.00;69195.44;5071894;28;20890;-49
2024/02/19 04:27:17;;;;;;;22.25;4.93;;;;;;;7.28;100.00;69197.78;5069671;28;20143;-49
2024/02/19 04:29:46;;;;;;;24.48;4.88;;;;;;;7.29;100.00;69198.94;5070499;28;20044;-52
2024/02/19 04:32:16;;;;;;;27.88;5.45;;;;;;;7.28;100.00;69203.53;5070280;28;20464;-52
2024/02/19 04:34:45;;;;;;;23.63;4.70;;;;;;;7.30;100.00;69202.69;5073424;28;20091;-53
2024/02/19 04:37:14;;;;;;;29.40;4.30;;;;;;;7.30;100.00;69202.69;5069846;28;20144;-55
2024/02/19 04:39:42;;;;;;;21.45;4.32;;;;;;;7.32;100.00;69207.03;5071660;28;20048;-50
2024/02/19 04:42:10;;;;;;;17.10;4.15;;;;;;;7.32;100.00;69205.03;5072007;28;20048;-49
2024/02/19 04:44:40;;;;;;;19.90;4.43;;;;;;;7.30;100.00;69205.28;5073058;28;20523;-50
2024/02/19 04:47:08;;;;;;;22.13;4.00;;;;;;;7.28;100.00;69198.34;5073337;28;20094;-47
2024/02/19 04:49:39;;;;;;;21.17;4.30;;;;;;;7.33;100.00;69206.19;5073167;28;20518;-48
2024/02/19 04:52:08;;;;;;;23.48;4.60;;;;;;;7.30;100.00;69196.94;5071285;28;20064;-52
2024/02/19 04:54:36;;;;;;;23.30;4.43;;;;;;;7.26;100.00;69196.00;5068755;28;20542;-52
2024/02/19 04:57:05;;;;;;;24.92;4.18;;;;;;;7.30;100.00;69199.53;5068396;28;20048;-51
2024/02/19 04:59:33;;;;;;;24.88;4.78;;;;;;;7.27;100.00;69199.78;5069013;28;20036;-51
2024/02/19 05:02:03;;;;;;;21.08;4.60;;;;;;;7.26;100.00;69196.00;5072371;28;20060;-50
2024/02/19 05:04:32;;;;;;;22.10;4.28;;;;;;;7.29;100.00;69201.53;5069496;28;20097;-51
2024/02/19 05:07:00;;;;;;;17.95;4.22;;;;;;;7.26;100.00;69198.59;5070003;28;20041;-51
2024/02/19 05:09:29;;;;;;;21.95;4.20;;;;;;;7.29;100.00;69196.34;5072475;28;20082;-50
2024/02/19 05:11:57;;;;;;;18.77;3.90;;;;;;;7.28;100.00;69203.53;5072829;28;20045;-51
2024/02/19 05:14:25;;;;;;;19.13;4.18;;;;;;;7.31;100.00;69201.25;5068941;28;20087;-53
2024/02/19 05:16:54;;;;;;;21.75;3.80;;;;;;;7.27;100.00;69194.59;5069436;28;20045;-53
2024/02/19 05:19:24;;;;;;;26.08;4.78;;;;;;;7.27;100.00;69197.19;5069496;28;20979;-49
2024/02/19 05:21:53;;;;;;;18.95;3.85;;;;;;;7.28;100.00;69198.34;5067925;28;20071;-51
2024/02/19 05:24:22;;;;;;;18.33;3.75;;;;;;;7.30;100.00;69199.53;5068582;28;20053;-53
2024/02/19 05:26:50;;;;;;;19.33;3.65;;;;;;;7.30;100.00;69196.94;5068804;28;20082;-50
2024/02/19 05:29:19;;;;;;;23.75;4.80;;;;;;;7.28;100.00;69198.34;5068479;28;20056;-52
2024/02/19 05:31:47;;;;;;;20.30;3.80;;;;;;;7.26;100.00;69196.00;5069727;28;20068;-50
2024/02/19 05:34:15;;;;;;;21.58;4.07;;;;;;;7.27;100.00;69202.38;5071605;28;20067;-52
2024/02/19 05:36:45;;;;;;;22.95;3.90;;;;;;;7.28;100.00;69197.78;5068423;28;20044;-51
2024/02/19 05:39:13;;;;;;;19.85;3.88;;;;;;;7.27;100.00;69197.19;5068926;28;20040;-48
2024/02/19 05:41:41;;;;;;;25.08;4.22;;;;;;;7.28;100.00;69198.34;5072571;28;20119;-52
2024/02/19 05:44:11;;;;;;;22.17;4.63;;;;;;;7.30;100.00;69202.69;5071211;28;20052;-49
2024/02/19 05:46:39;;;;;;;19.55;5.13;;;;;;;7.30;100.00;69204.72;5069141;28;20045;-50
2024/02/19 05:49:07;;;;;;;19.67;3.80;;;;;;;7.34;100.00;69201.59;5068374;28;20130;-52
2024/02/19 05:51:35;;;;;;;22.58;4.30;;;;;;;7.31;100.00;69200.66;5072088;28;20048;-51
2024/02/19 05:54:07;;;;;;;23.55;4.10;;;;;;;7.28;100.00;69200.38;5071624;28;20400;-50
2024/02/19 05:56:35;;;;;;;20.08;5.15;;;;;;;7.28;100.00;69197.78;5067742;28;20503;-50
2024/02/19 05:59:03;;;;;;;22.45;4.82;;;;;;;7.30;100.00;69200.09;5068946;28;20053;-51
2024/02/19 06:01:32;;;;;;;26.88;5.10;;;;;;;7.31;100.00;69200.66;5068016;28;20521;-49
2024/02/19 06:04:00;;;;;;;17.30;4.55;;;;;;;7.32;100.00;69199.25;5072090;28;20557;-50
2024/02/19 06:06:28;;;;;;;26.02;4.13;;;;;;;7.33;100.00;69203.00;5071603;28;20048;-52
2024/02/19 06:08:56;;;;;;;23.13;4.30;;;;;;;7.31;100.00;69203.25;5069537;28;20044;-50
2024/02/19 06:11:27;;;;;;;21.63;4.32;;;;;;;7.31;100.00;69206.47;5071337;28;20056;-51
2024/02/19 06:13:56;;;;;;;19.85;3.83;;;;;;;7.32;100.00;69197.25;5072377;28;20105;-53
2024/02/19 06:16:24;;;;;;;21.02;4.88;;;;;;;7.33;100.00;69205.59;5075438;28;20069;-61
2024/02/19 06:18:52;;;;;;;16.38;4.78;;;;;;;7.32;100.00;69205.03;5076591;28;20053;-62
2024/02/19 06:21:21;;;;;;;18.65;4.22;;;;;;;7.31;100.00;69200.66;5076050;28;20052;-62
2024/02/19 06:23:49;;;;;;;16.55;4.90;;;;;;;7.31;100.00;69201.25;5074736;28;20409;-61
2024/02/19 06:26:17;;;;;;;18.23;5.25;;;;;;;7.32;100.00;69205.03;5075339;28;20048;-61
2024/02/19 06:28:47;;;;;;;19.00;5.07;;;;;;;7.32;100.00;69201.84;5074741;28;20055;-62
2024/02/19 06:31:15;;;;;;;27.25;6.30;;;;;;;7.36;100.00;69203.91;5074410;28;20056;-62
2024/02/19 06:33:43;;;;;;;24.02;6.60;;;;;;;7.32;100.00;69196.66;5074735;28;20037;-61
2024/02/19 06:36:11;;;;;;;26.45;6.72;;;;;;;7.32;100.00;69205.03;5074421;28;20056;-61
2024/02/19 06:38:40;;;;;;;26.38;5.60;;;;;;;7.32;100.00;69199.84;5075243;28;20041;-61
2024/02/19 06:41:08;;;;;;;20.50;6.18;;;;;;;7.32;100.00;69202.44;5076182;28;20087;-62
2024/02/19 06:43:36;;;;;;;24.27;6.60;;;;;;;7.33;100.00;69200.41;5074299;28;20169;-62
2024/02/19 06:46:06;;;;;;;21.40;6.05;;;;;;;7.32;100.00;69202.44;5073765;28;20395;-61
2024/02/19 06:48:34;;;;;;;27.00;6.88;;;;;;;7.32;100.00;69202.44;5074619;28;20041;-62
2024/02/19 06:51:03;;;;;;;30.45;8.50;;;;;;;7.34;100.00;69201.59;5074140;28;20468;-62
2024/02/19 06:53:31;;;;;;;22.10;6.75;;;;;;;7.33;100.00;69200.97;5075418;28;20044;-52
2024/02/19 06:56:00;;;;;;;28.45;7.25;;;;;;;7.33;100.00;69203.00;5071522;28;20512;-52
2024/02/19 06:58:28;;;;;;;22.10;6.90;;;;;;;7.32;100.00;69202.44;5072141;28;20404;-51
2024/02/19 07:00:56;;;;;;;21.25;6.18;;;;;;;7.33;100.00;69200.97;5072221;28;20068;-51
2024/02/19 07:03:26;;;;;;;21.65;6.60;;;;;;;7.33;100.00;69208.19;5072218;28;20052;-52
2024/02/19 07:05:54;;;;;;;22.55;6.53;;;;;;;7.33;100.00;69200.97;5073611;28;20071;-53
2024/02/19 07:08:23;;;;;;;18.38;5.10;;;;;;;7.34;100.00;69201.59;5072455;28;20086;-53
2024/02/19 07:10:52;;;;;;;23.95;5.53;;;;;;;7.33;100.00;69203.59;5071007;28;20510;-52
2024/02/19 07:13:20;;;;;;;21.83;6.15;;;;;;;7.34;100.00;69207.34;5072451;28;20040;-50
2024/02/19 07:15:48;;;;;;;17.02;5.32;;;;;;;7.36;100.00;69206.50;5075068;28;20052;-52
2024/02/19 07:18:16;;;;;;;22.58;6.40;;;;;;;7.36;100.00;69201.31;5075016;28;20047;-51
2024/02/19 07:20:46;;;;;;;12.88;4.10;;;;;;;7.37;100.00;69205.06;5074098;28;20106;-49
2024/02/19 07:23:14;;;;;;;21.70;5.50;;;;;;;7.39;100.00;69212.56;5075074;28;20551;-52
2024/02/19 07:25:46;;;;;;;20.48;4.95;;;;;;;7.40;100.00;69211.16;5074186;28;20036;-49
2024/02/19 07:28:14;;;;;;;21.35;5.05;;;;;;;7.43;100.00;69217.22;5070898;28;20047;-50
2024/02/19 07:30:42;;;;;;;14.52;4.05;;;;;;;7.44;100.00;69213.81;5072425;28;20048;-52
2024/02/19 07:33:10;;;;;;;25.33;4.82;;;;;;;7.48;100.00;69219.88;5071510;28;20049;-50
2024/02/19 07:35:39;;;;;;;20.45;4.45;;;;;;;7.49;100.00;69216.44;5071214;28;20040;-49
2024/02/19 07:38:08;;;;;;;23.50;4.63;;;;;;;7.51;100.00;69223.97;5071846;28;20066;-52
2024/02/19 07:40:36;;;;;;;22.00;4.47;;;;;;;7.52;100.00;69227.72;5072939;28;20044;-48
2024/02/19 07:43:05;;;;;;;18.92;3.85;;;;;;;7.52;100.00;69227.72;5070641;28;20041;-49
2024/02/19 07:45:33;;;;;;;15.27;3.85;;;;;;;7.56;100.00;69229.19;5071917;28;20044;-50
2024/02/19 07:48:02;;;;;;;20.10;4.20;;;;;;;7.59;100.00;69228.09;5071689;28;20050;-49
2024/02/19 07:50:31;;;;;;;15.75;4.07;;;;;;;7.62;100.00;69230.97;5070886;28;20072;-49
2024/02/19 07:52:59;;;;;;;18.27;4.53;;;;;;;7.67;100.00;69241.44;5070948;28;20044;-51
2024/02/19 07:55:31;;;;;;;18.20;4.60;;;;;;;7.69;100.00;69239.16;5069356;28;20117;-51
2024/02/19 07:58:00;;;;;;;17.67;4.18;;;;;;;7.73;100.00;69251.00;5069507;28;20092;-52
2024/02/19 08:00:28;;;;;;;18.95;3.97;;;;;;;7.77;100.00;69250.47;5071062;28;20060;-51
2024/02/19 08:02:56;;;;;;;16.83;3.70;;;;;;;7.79;100.00;69253.38;5070806;28;20053;-54
2024/02/19 08:05:25;;;;;;;17.60;3.80;;;;;;;7.84;100.00;69255.44;5071010;28;20482;-53
2024/02/19 08:07:53;;;;;;;16.48;4.57;;;;;;;7.86;100.00;69260.94;5073843;28;20448;-53
2024/02/19 08:10:21;;;;;;;19.15;4.45;;;;;;;7.91;100.00;69266.78;5070901;28;20044;-51
2024/02/19 08:12:51;;;;;;;19.83;4.47;;;;;;;7.96;100.00;69272.00;5070022;28;20041;-52
2024/02/19 08:15:19;;;;;;;18.75;4.88;;;;;;;7.99;100.00;69275.53;5070448;28;20060;-50
2024/02/19 08:17:47;;;;;;;21.52;4.90;;;;;;;8.04;100.00;69283.34;5070975;28;20072;-52
2024/02/19 08:20:16;;;;;;;24.90;5.35;;;;;;;8.09;100.00;69287.16;5071301;28;20040;-51
2024/02/19 08:22:44;;;;;;;16.45;4.68;;;;;;;8.10;100.00;69290.91;5072546;28;20110;-50
2024/02/19 08:25:14;;;;;;;17.90;4.70;;;;;;;8.16;100.00;69294.72;5073807;28;20083;-52
2024/02/19 08:27:42;;;;;;;24.58;5.30;;;;;;;8.22;100.00;69304.31;5073447;28;20040;-52
2024/02/19 08:30:12;;;;;;;21.00;4.90;;;;;;;8.22;100.00;69306.31;5070009;28;20053;-52
2024/02/19 08:32:41;;;;;;;20.13;4.22;;;;;;;8.28;100.00;69311.31;5070498;28;20052;-50
2024/02/19 08:35:09;;;;;;;18.70;4.85;;;;;;;8.30;100.00;69315.66;5069639;28;20036;-50
2024/02/19 08:37:38;;;;;;;14.23;4.57;;;;;;;8.35;100.00;69315.69;5070125;28;20060;-51
2024/02/19 08:40:07;;;;;;;22.13;5.88;;;;;;;8.40;100.00;69324.13;5069452;28;20078;-51
2024/02/19 08:42:36;;;;;;;16.27;4.53;;;;;;;8.44;100.00;69331.41;5069281;28;20056;-49
2024/02/19 08:45:06;;;;;;;20.50;4.97;;;;;;;8.48;100.00;69335.47;5068116;28;20488;-52
2024/02/19 08:47:36;;;;;;;14.88;5.15;;;;;;;8.51;100.00;69336.97;5070590;28;20048;-49
2024/02/19 08:50:05;;;;;;;17.38;4.95;;;;;;;8.55;100.00;69344.22;5067992;28;20484;-50
2024/02/19 08:52:34;;;;;;;17.15;5.63;;;;;;;8.61;100.00;69348.03;5070130;28;20058;-50
2024/02/19 08:55:02;;;;;;;20.73;5.35;;;;;;;8.66;100.00;69350.66;5073150;28;20040;-61
2024/02/19 08:57:33;;;;;;;20.55;5.80;;;;;;;8.71;100.00;69361.69;5072426;28;20068;-61
2024/02/19 09:00:04;;;;;;;19.45;4.38;;;;;;;8.75;100.00;69366.97;5070121;28;20482;-61
2024/02/19 09:02:32;;;;;;;14.65;4.20;;;;;;;8.83;100.00;69369.91;5072405;28;20449;-62
2024/02/19 09:05:04;;;;;;;16.75;4.93;;;;;;;8.89;100.00;69384.69;5071373;28;20115;-50
2024/02/19 09:07:32;;;;;;;22.63;5.13;;;;;;;8.92;100.00;69383.56;5070063;28;20056;-48
2024/02/19 09:10:01;;;;;;;18.20;4.88;;;;;;;8.97;100.00;69386.22;5069852;28;20119;-50
2024/02/19 09:12:29;;;;;;;17.33;5.10;;;;;;;8.98;100.00;69389.97;5072784;28;20055;-48
2024/02/19 09:14:58;;;;;;;15.45;5.15;;;;;;;9.03;100.00;69393.22;5072832;28;20086;-49
2024/02/19 09:17:28;;;;;;;15.27;5.03;;;;;;;9.09;100.00;69402.22;5072664;28;20093;-51
2024/02/19 09:19:56;;;;;;;15.85;4.20;;;;;;;9.09;100.00;69399.63;5069357;28;20404;-50
2024/02/19 09:22:26;;;;;;;18.02;6.07;;;;;;;9.09;100.00;69399.63;5068492;28;20052;-51
2024/02/19 09:24:55;;;;;;;13.15;4.53;;;;;;;9.14;100.00;69405.47;5068734;28;20118;-61
2024/02/19 09:27:24;;;;;;;17.05;4.70;;;;;;;9.18;100.00;69412.72;5069822;28;20987;-61
2024/02/19 09:29:52;;;;;;;20.83;5.30;;;;;;;9.22;100.00;69411.59;5071032;28;20143;-61
2024/02/19 09:32:21;;;;;;;17.58;5.50;;;;;;;9.24;100.00;69419.13;5069375;28;20051;-52
2024/02/19 09:34:49;;;;;;;14.70;4.88;;;;;;;9.27;100.00;69425.81;5069278;28;20514;-60
2024/02/19 09:37:24;;;;;;;15.85;5.15;;;;;;;9.32;100.00;69430.47;5070198;28;20040;-61
2024/02/19 09:39:58;;;;;;;15.32;4.10;;;;;;;9.34;100.00;69427.59;5070948;28;20044;-62
2024/02/19 09:42:27;;;;;;;18.80;6.03;;;;;;;9.32;100.00;69425.84;5071913;28;20492;-62
2024/02/19 09:44:56;;;;;;;15.88;4.60;;;;;;;9.32;100.00;69427.88;5072289;28;20048;-61
2024/02/19 09:47:24;;;;;;;19.17;6.03;;;;;;;9.27;100.00;69423.22;5070583;28;20120;-61
2024/02/19 09:49:54;;;;;;;14.75;5.55;;;;;;;9.33;100.00;69429.06;5070332;28;20099;-62
2024/02/19 09:52:24;;;;;;;19.45;5.32;;;;;;;9.35;100.00;69434.56;5070221;28;20084;-62
2024/02/19 09:54:59;;;;;;;15.82;5.25;;;;;;;9.40;100.00;69435.19;5069975;28;20411;-62
2024/02/19 09:57:28;;;;;;;17.75;4.93;;;;;;;9.46;100.00;69444.19;5069447;28;20408;-61
2024/02/19 09:59:58;;;;;;;16.15;5.05;;;;;;;9.48;100.00;69443.94;5070402;28;20148;-61
2024/02/19 10:02:26;;;;;;;15.98;4.60;;;;;;;9.48;100.00;69447.09;5068057;28;20053;-62
2024/02/19 10:04:54;;;;;;;15.20;5.65;;;;;;;9.50;100.00;69445.69;5069684;28;20064;-61
2024/02/19 10:07:23;;;;;;;20.00;5.78;;;;;;;9.58;100.00;69452.97;5069688;28;20446;-62
2024/02/19 10:09:51;;;;;;;17.38;5.45;;;;;;;9.64;100.00;69465.19;5069238;28;20043;-61
2024/02/19 10:12:21;;;;;;;17.10;6.03;;;;;;;9.65;100.00;69460.56;5071566;28;20041;-62
2024/02/19 10:14:49;;;;;;;16.27;5.63;;;;;;;9.68;100.00;69466.69;5069643;28;20036;-62
2024/02/19 10:17:22;;;;;;;17.48;5.95;;;;;;;9.73;100.00;69469.88;5069493;28;20140;-61
2024/02/19 10:20:00;;;;;;;18.08;5.85;;;;;;;9.79;100.00;69478.94;5069139;28;20060;-61
2024/02/19 10:22:28;;;;;;;14.57;6.00;;;;;;;9.77;100.00;69477.16;5072096;28;20139;-61
2024/02/19 10:24:56;;;;;;;16.83;6.00;;;;;;;9.82;100.00;69483.00;5070293;28;20052;-61
2024/02/19 10:27:29;;;;;;;16.20;5.80;;;;;;;9.91;100.00;69492.31;5068286;28;20056;-61
2024/02/19 10:29:58;;;;;;;16.40;6.57;;;;;;;9.92;100.00;69496.09;5069147;28;20439;-61
2024/02/19 10:32:26;;;;;;;19.67;6.60;;;;;;;9.95;100.00;69499.59;5069570;28;20074;-61
2024/02/19 10:34:54;;;;;;;18.08;6.82;;;;;;;9.95;100.00;69502.78;5068876;28;20535;-62
2024/02/19 10:37:25;;;;;;;20.00;6.55;;;;;;;9.98;100.00;69503.09;5068966;28;20044;-61
2024/02/19 10:39:54;;;;;;;17.63;7.07;;;;;;;9.97;100.00;69502.50;5068554;28;20048;-50
2024/02/19 10:42:23;;;;;;;15.35;6.47;;;;;;;10.05;100.00;69505.47;5069540;28;20119;-49
2024/02/19 10:44:53;;;;;;;20.77;8.35;;;;;;;10.07;100.00;69510.97;5072087;28;20090;-48
2024/02/19 10:47:22;;;;;;;16.77;7.70;;;;;;;10.03;100.00;69503.13;5068951;28;20538;-51
2024/02/19 10:49:56;;;;;;;18.42;8.25;;;;;;;10.06;100.00;69507.22;5067945;28;20041;-49
2024/02/19 10:52:27;;;;;;;16.70;8.30;;;;;;;10.11;100.00;69515.66;5068909;28;20044;-49
2024/02/19 10:54:57;;;;;;;15.93;7.00;;;;;;;10.13;100.00;69520.59;5068225;28;20055;-50
2024/02/19 10:57:48;;;;;;;14.10;6.72;;;;;;;10.08;100.00;69512.16;5070691;28;20122;-49
2024/02/19 11:00:19;;;;;;;16.83;6.75;;;;;;;10.10;100.00;69514.50;5074563;28;20048;-49
2024/02/19 11:02:48;;;;;;;17.23;7.40;;;;;;;10.15;100.00;69522.34;5072370;28;20168;-48
2024/02/19 11:05:17;;;;;;;17.80;6.78;;;;;;;10.17;100.00;69521.50;5071324;28;20064;-49
2024/02/19 11:07:45;;;;;;;17.02;6.75;;;;;;;10.15;100.00;69519.75;5072687;28;20114;-48
2024/02/19 11:10:13;;;;;;;20.30;7.68;;;;;;;10.19;100.00;69526.44;5071058;28;20112;-49
2024/02/19 11:12:42;;;;;;;23.88;7.45;;;;;;;10.10;100.00;69513.91;5070878;28;20052;-51
2024/02/19 11:15:16;;;;;;;19.45;6.95;;;;;;;10.08;100.00;69519.41;5071252;28;20060;-52
2024/02/19 11:17:48;;;;;;;16.98;7.05;;;;;;;10.11;100.00;69522.91;5070495;28;20151;-52
2024/02/19 11:20:24;;;;;;;;;;;;;;;10.11;100.00;69515.66;5071928;28;20051;-51
2024/02/19 11:22:56;;;;;;;18.17;6.93;;;;;;;10.12;100.00;69518.84;5072137;28;20271;-50
2024/02/19 11:25:25;;;;;;;14.20;6.80;;;;;;;10.12;100.00;69519.44;5070143;28;20475;-50
2024/02/19 11:27:53;;;;;;;17.90;6.40;;;;;;;10.15;100.00;69519.75;5071407;28;20055;-52
2024/02/19 11:30:21;;;;;;;16.75;6.95;;;;;;;10.10;100.00;69513.91;5073029;28;20515;-51
2024/02/19 11:32:59;;;;;;;17.23;7.57;;;;;;;10.11;100.00;69517.69;5072337;28;20518;-51